MNL weather

Ninoy Aquino International Airport
Manila, Philippines

Public forecast

Using degrees Celsius for public forecast. Weather courtesy of forecast.io.

METAR (pilot weather report)

Retrieved 2017/04/29 18:00 UTC (1 hour ago):

RPLL 291800Z VRB02KT 9000 FEW022CB FEW023 29/28 Q1010 NOSIG RMK A2983 CB NE WITH OCNL LTG

TAF (pilot weather forecast)

Retrieved 2017/04/29 18:00 UTC (1 hour ago):

TAF RPLL 291700Z 2918/3024 16007KT 9999 FEW025 SCT300 TX35/3006Z TN26/2921Z TEMPO 2918/2923 VRB02KT 9000 FEW025 BKN090 TEMPO 3000/3004 12008KT FEW025 BKN300 TEMPO 3004/3010 18010KT FEW022CB SCT023 BKN300